createdAt,value
2023-05-05T00:02:21.940Z,100918.49
2023-05-05T00:04:48.844Z,100914.41
2023-05-05T00:07:15.410Z,100914.95
2023-05-05T00:09:42.903Z,100917.66
2023-05-05T00:12:09.504Z,100912.73
2023-05-05T00:14:36.060Z,100913.24
2023-05-05T00:17:04.200Z,100912.40
2023-05-05T00:19:31.233Z,100910.52
2023-05-05T00:21:57.770Z,100909.45
2023-05-05T00:24:24.294Z,100911.61
2023-05-05T00:26:51.184Z,100910.23
2023-05-05T00:29:17.822Z,100912.02
2023-05-05T00:31:44.324Z,100913.87
2023-05-05T00:34:11.094Z,100913.30
2023-05-05T00:36:38.684Z,100911.80
2023-05-05T00:39:05.629Z,100906.41
2023-05-05T00:41:32.222Z,100904.77
2023-05-05T00:43:58.756Z,100906.64
2023-05-05T00:46:30.729Z,100907.61
2023-05-05T00:48:57.972Z,100906.02
2023-05-05T00:51:26.314Z,100908.27
2023-05-05T00:53:53.309Z,100907.02
2023-05-05T00:56:27.373Z,100906.79
2023-05-05T00:58:54.195Z,100899.96
2023-05-05T01:01:20.725Z,100903.39
2023-05-05T01:03:47.402Z,100904.43
2023-05-05T01:07:03.988Z,100907.71
2023-05-05T01:09:42.025Z,100905.88
2023-05-05T01:12:21.144Z,100904.98
2023-05-05T01:14:58.689Z,100905.09
2023-05-05T01:17:34.951Z,100908.45
2023-05-05T01:20:13.921Z,100909.35
2023-05-05T01:22:47.639Z,100905.48
2023-05-05T01:25:45.402Z,100908.12
2023-05-05T01:28:36.920Z,100908.21
2023-05-05T01:31:23.522Z,100908.11
2023-05-05T01:33:57.268Z,100905.65
2023-05-05T01:36:36.175Z,100898.30
2023-05-05T01:39:04.463Z,100893.45
2023-05-05T01:41:43.251Z,100892.29
2023-05-05T01:44:11.944Z,100892.13
2023-05-05T01:46:38.450Z,100890.76
2023-05-05T01:49:09.934Z,100891.91
2023-05-05T01:51:38.062Z,100893.56
2023-05-05T01:54:09.947Z,100895.67
2023-05-05T01:56:40.034Z,100893.91
2023-05-05T01:59:08.808Z,100881.56
2023-05-05T02:01:41.629Z,100878.54
2023-05-05T02:04:11.914Z,100881.71
2023-05-05T02:06:40.961Z,100885.66
2023-05-05T02:09:11.790Z,100884.24
2023-05-05T02:11:39.533Z,100882.15
2023-05-05T02:14:07.965Z,100880.61
2023-05-05T02:16:58.393Z,100882.50
2023-05-05T02:19:30.955Z,100879.82
2023-05-05T02:21:58.147Z,100878.19
2023-05-05T02:24:26.489Z,100876.88
2023-05-05T02:26:54.811Z,100879.39
2023-05-05T02:29:31.267Z,100878.70
2023-05-05T02:32:02.630Z,100873.13
2023-05-05T02:34:34.401Z,100871.60
2023-05-05T02:37:04.945Z,100869.41
2023-05-05T02:39:47.980Z,100870.88
2023-05-05T02:42:21.759Z,100875.15
2023-05-05T02:44:51.755Z,100875.14
2023-05-05T02:47:20.850Z,100879.05
2023-05-05T02:49:48.110Z,100882.86
2023-05-05T02:52:14.761Z,100879.80
2023-05-05T02:54:42.138Z,100883.73
2023-05-05T02:57:18.621Z,100883.21
2023-05-05T03:00:02.540Z,100878.56
2023-05-05T03:02:44.719Z,100875.96
2023-05-05T03:05:23.572Z,100873.92
2023-05-05T03:08:04.019Z,100875.15
2023-05-05T03:10:36.416Z,100873.29
2023-05-05T03:13:06.945Z,100874.54
2023-05-05T03:15:48.373Z,100875.95
2023-05-05T03:18:18.209Z,100872.85
2023-05-05T03:20:48.673Z,100869.96
2023-05-05T03:23:20.708Z,100871.20
2023-05-05T03:25:49.024Z,100873.80
2023-05-05T03:28:27.178Z,100873.05
2023-05-05T03:30:54.789Z,100876.88
2023-05-05T03:33:25.853Z,100877.43
2023-05-05T03:35:52.410Z,100872.92
2023-05-05T03:38:18.928Z,100869.08
2023-05-05T03:40:45.595Z,100867.39
2023-05-05T03:43:14.825Z,100871.94
2023-05-05T03:45:41.548Z,100876.08
2023-05-05T03:48:09.708Z,100872.52
2023-05-05T03:50:37.860Z,100868.30
2023-05-05T03:53:04.480Z,100870.30
2023-05-05T03:55:31.058Z,100875.63
2023-05-05T03:57:57.569Z,100877.77
2023-05-05T04:00:24.072Z,100876.45
2023-05-05T04:02:50.796Z,100876.79
2023-05-05T04:05:19.782Z,100875.53
2023-05-05T04:07:46.396Z,100878.29
2023-05-05T04:10:12.997Z,100880.88
2023-05-05T04:12:39.625Z,100881.64
2023-05-05T04:15:06.883Z,100881.07
2023-05-05T04:17:34.093Z,100885.40
2023-05-05T04:20:01.294Z,100893.93
2023-05-05T04:22:29.999Z,100902.27
2023-05-05T04:24:57.004Z,100907.90
2023-05-05T04:27:26.174Z,100904.80
2023-05-05T04:29:53.543Z,100903.36
2023-05-05T04:32:20.169Z,100908.98
2023-05-05T04:34:48.367Z,100915.69
2023-05-05T04:37:15.991Z,100920.64
2023-05-05T04:39:42.942Z,100920.92
2023-05-05T04:42:10.286Z,100920.92
2023-05-05T04:44:36.877Z,100926.54
2023-05-05T04:47:04.257Z,100927.08
2023-05-05T04:49:32.022Z,100924.43
2023-05-05T04:51:59.214Z,100924.91
2023-05-05T04:54:25.974Z,100927.31
2023-05-05T04:56:52.620Z,100927.16
2023-05-05T04:59:19.209Z,100928.33
2023-05-05T05:01:46.486Z,100928.14
2023-05-05T05:04:13.829Z,100929.65
2023-05-05T05:06:40.427Z,100934.89
2023-05-05T05:09:07.062Z,100940.43
2023-05-05T05:11:33.638Z,100939.88
2023-05-05T05:14:03.759Z,100935.95
2023-05-05T05:16:30.514Z,100933.68
2023-05-05T05:18:57.121Z,100937.77
2023-05-05T05:21:23.789Z,100934.72
2023-05-05T05:23:50.915Z,100939.50
2023-05-05T05:26:18.242Z,100941.14
2023-05-05T05:28:44.918Z,100937.09
2023-05-05T05:31:12.004Z,100939.27
2023-05-05T05:33:45.658Z,100937.98
2023-05-05T05:36:12.845Z,100938.19
2023-05-05T05:38:39.500Z,100939.77
2023-05-05T05:41:07.566Z,100936.35
2023-05-05T05:43:34.705Z,100943.30
2023-05-05T05:46:03.123Z,100943.02
2023-05-05T05:48:29.950Z,100943.74
2023-05-05T05:50:57.150Z,100945.30
2023-05-05T05:53:24.463Z,100942.57
2023-05-05T05:55:52.301Z,100943.40
2023-05-05T05:58:19.543Z,100941.70
2023-05-05T06:00:46.687Z,100941.33
2023-05-05T06:03:13.547Z,100938.71
2023-05-05T06:05:41.841Z,100941.52
2023-05-05T06:08:08.628Z,100941.04
2023-05-05T06:10:39.883Z,100938.02
2023-05-05T06:13:09.988Z,100940.32
2023-05-05T06:15:39.024Z,100937.45
2023-05-05T06:18:05.808Z,100939.96
2023-05-05T06:20:32.528Z,100933.86
2023-05-05T06:22:59.163Z,100935.84
2023-05-05T06:25:26.325Z,100936.97
2023-05-05T06:27:52.975Z,100936.47
2023-05-05T06:30:19.749Z,100936.73
2023-05-05T06:32:46.973Z,100937.72
2023-05-05T06:35:13.528Z,100937.48
2023-05-05T06:37:40.106Z,100940.34
2023-05-05T06:40:08.014Z,100939.42
2023-05-05T06:42:35.970Z,100938.73
2023-05-05T06:45:04.082Z,100942.38
2023-05-05T06:47:30.860Z,100947.13
2023-05-05T06:49:57.653Z,100946.71
2023-05-05T06:52:24.344Z,100947.56
2023-05-05T06:54:50.895Z,100945.70
2023-05-05T06:57:17.534Z,100950.38
2023-05-05T06:59:44.097Z,100949.65
2023-05-05T07:02:10.650Z,100950.19
2023-05-05T07:04:37.194Z,100950.73
2023-05-05T07:07:03.876Z,100953.92
2023-05-05T07:09:30.450Z,100958.54
2023-05-05T07:11:57.137Z,100957.02
2023-05-05T07:14:24.474Z,100955.03
2023-05-05T07:16:51.682Z,100956.55
2023-05-05T07:19:18.528Z,100959.66
2023-05-05T07:21:45.158Z,100958.70
2023-05-05T07:24:11.658Z,100957.91
2023-05-05T07:26:38.337Z,100959.02
2023-05-05T07:29:07.173Z,100955.91
2023-05-05T07:31:33.921Z,100954.29
2023-05-05T07:34:00.519Z,100955.16
2023-05-05T07:36:27.966Z,100954.13
2023-05-05T07:38:55.027Z,100956.20
2023-05-05T07:41:21.661Z,100955.09
2023-05-05T07:43:48.235Z,100953.19
2023-05-05T07:46:14.973Z,100957.48
2023-05-05T07:48:42.075Z,100959.16
2023-05-05T07:51:09.476Z,100965.50
2023-05-05T07:53:36.356Z,100964.16
2023-05-05T07:56:03.612Z,100967.20
2023-05-05T07:58:30.176Z,100968.10
2023-05-05T08:00:56.830Z,100966.97
2023-05-05T08:03:24.781Z,100969.23
2023-05-05T08:05:54.505Z,100968.61
2023-05-05T08:08:24.723Z,100967.61
2023-05-05T08:10:53.076Z,100969.29
2023-05-05T08:13:20.104Z,100967.89
2023-05-05T08:15:46.849Z,100968.52
2023-05-05T08:18:14.830Z,100969.95
2023-05-05T08:20:41.734Z,100970.31
2023-05-05T08:23:08.450Z,100972.30
2023-05-05T08:25:35.164Z,100973.42
2023-05-05T08:28:01.776Z,100970.80
2023-05-05T08:30:28.722Z,100970.41
2023-05-05T08:32:55.399Z,100967.84
2023-05-05T08:35:22.312Z,100973.42
2023-05-05T08:37:50.656Z,100974.42
2023-05-05T08:40:17.247Z,100976.23
2023-05-05T08:42:46.419Z,100975.80
2023-05-05T08:45:13.135Z,100977.70
2023-05-05T08:47:40.267Z,100978.67
2023-05-05T08:50:10.400Z,100976.38
2023-05-05T08:52:52.521Z,100976.06
2023-05-05T08:55:28.106Z,100975.17
2023-05-05T08:57:57.211Z,100972.44
2023-05-05T09:00:27.017Z,100972.50
2023-05-05T09:02:57.274Z,100971.13
2023-05-05T09:05:26.811Z,100968.34
2023-05-05T09:07:53.456Z,100969.73
2023-05-05T09:10:20.153Z,100972.86
2023-05-05T09:12:46.901Z,100968.73
2023-05-05T09:15:15.104Z,100970.00
2023-05-05T09:17:42.308Z,100975.42
2023-05-05T09:20:14.356Z,100977.33
2023-05-05T09:22:42.942Z,100973.83
2023-05-05T09:25:12.026Z,100972.71
2023-05-05T09:27:48.996Z,100975.09
2023-05-05T09:30:18.517Z,100971.60
2023-05-05T09:32:56.197Z,100971.42
2023-05-05T09:35:23.426Z,100971.13
2023-05-05T09:37:51.571Z,100970.14
2023-05-05T09:40:19.991Z,100970.75
2023-05-05T09:42:48.703Z,100975.67
2023-05-05T09:45:20.838Z,100981.12
2023-05-05T09:47:48.441Z,100977.08
2023-05-05T09:50:18.456Z,100976.08
2023-05-05T09:53:00.658Z,100978.44
2023-05-05T09:55:27.513Z,100978.44
2023-05-05T09:57:54.111Z,100971.05
2023-05-05T10:00:21.166Z,100973.04
2023-05-05T10:02:47.776Z,100979.27
2023-05-05T10:05:17.484Z,100979.44
2023-05-05T10:07:46.926Z,100982.96
2023-05-05T10:10:16.766Z,100979.31
2023-05-05T10:12:47.177Z,100977.14
2023-05-05T10:15:15.908Z,100976.94
2023-05-05T10:18:05.230Z,100981.08
2023-05-05T10:20:33.395Z,100978.07
2023-05-05T10:23:04.676Z,100975.03
2023-05-05T10:25:39.201Z,100976.39
2023-05-05T10:28:08.100Z,100974.48
2023-05-05T10:30:43.171Z,100977.45
2023-05-05T10:33:31.143Z,100981.48
2023-05-05T10:36:02.487Z,100978.70
2023-05-05T10:38:33.901Z,100975.94
2023-05-05T10:41:02.178Z,100975.88
2023-05-05T10:43:30.716Z,100976.13
2023-05-05T10:45:58.658Z,100976.12
2023-05-05T10:48:34.546Z,100971.53
2023-05-05T10:51:39.564Z,100967.77
2023-05-05T10:54:18.029Z,100964.10
2023-05-05T10:56:46.700Z,100969.31
2023-05-05T10:59:40.702Z,100967.23
2023-05-05T11:02:21.168Z,100968.02
2023-05-05T11:05:16.835Z,100971.62
2023-05-05T11:07:46.056Z,100973.76
2023-05-05T11:10:15.286Z,100967.45
2023-05-05T11:12:54.114Z,100961.54
2023-05-05T11:15:30.313Z,100963.44
2023-05-05T11:18:05.742Z,100965.94
2023-05-05T11:20:39.955Z,100961.06
2023-05-05T11:23:06.800Z,100959.57
2023-05-05T11:25:40.937Z,100953.64
2023-05-05T11:28:13.568Z,100953.06
2023-05-05T11:30:59.184Z,100953.81
2023-05-05T11:33:31.579Z,100953.27
2023-05-05T11:36:09.395Z,100950.65
2023-05-05T11:38:38.961Z,100950.59
2023-05-05T11:41:12.736Z,100954.75
2023-05-05T11:43:41.821Z,100956.34
2023-05-05T11:46:17.002Z,100953.21
2023-05-05T11:48:48.095Z,100947.43
2023-05-05T11:51:16.602Z,100946.91
2023-05-05T11:53:44.732Z,100950.42
2023-05-05T11:56:14.147Z,100954.48
2023-05-05T11:58:41.883Z,100955.52
2023-05-05T12:01:08.928Z,100957.10
2023-05-05T12:03:39.496Z,100949.91
2023-05-05T12:06:07.781Z,100950.75
2023-05-05T12:08:38.296Z,100948.41
2023-05-05T12:11:07.772Z,100949.63
2023-05-05T12:13:35.161Z,100948.38
2023-05-05T12:16:12.960Z,100947.48
2023-05-05T12:18:40.313Z,100946.53
2023-05-05T12:21:20.544Z,100948.89
2023-05-05T12:23:47.285Z,100948.48
2023-05-05T12:26:31.702Z,100947.02
2023-05-05T12:28:59.563Z,100947.01
2023-05-05T12:31:36.808Z,100948.39
2023-05-05T12:34:08.458Z,100944.55
2023-05-05T12:36:38.952Z,100950.42
2023-05-05T12:39:05.607Z,100953.79
2023-05-05T12:41:33.004Z,100950.83
2023-05-05T12:44:01.538Z,100949.66
2023-05-05T12:46:32.175Z,100949.48
2023-05-05T12:49:00.306Z,100944.16
2023-05-05T12:51:28.226Z,100950.70
2023-05-05T12:54:09.875Z,100952.10
2023-05-05T12:56:38.556Z,100955.33
2023-05-05T12:59:08.018Z,100954.81
2023-05-05T13:01:50.802Z,100948.48
2023-05-05T13:04:18.713Z,100953.20
2023-05-05T13:06:47.429Z,100957.55
2023-05-05T13:09:25.177Z,100959.13
2023-05-05T13:11:52.998Z,100956.06
2023-05-05T13:14:19.840Z,100952.29
2023-05-05T13:16:46.849Z,100951.39
2023-05-05T13:19:13.458Z,100953.50
2023-05-05T13:21:42.347Z,100951.38
2023-05-05T13:24:25.375Z,100951.14
2023-05-05T13:26:56.590Z,100959.00
2023-05-05T13:29:25.584Z,100958.30
2023-05-05T13:31:55.479Z,100957.48
2023-05-05T13:34:22.257Z,100959.15
2023-05-05T13:36:48.893Z,100956.28
2023-05-05T13:39:15.760Z,100955.88
2023-05-05T13:41:44.838Z,100957.95
2023-05-05T13:44:12.416Z,100955.52
2023-05-05T13:46:39.025Z,100956.09
2023-05-05T13:49:05.688Z,100949.70
2023-05-05T13:51:34.639Z,100941.69
2023-05-05T13:54:01.518Z,100940.14
2023-05-05T13:56:28.430Z,100941.39
2023-05-05T13:58:55.061Z,100940.73
2023-05-05T14:01:21.730Z,100946.02
2023-05-05T14:03:48.319Z,100950.73
2023-05-05T14:06:14.928Z,100950.53
2023-05-05T14:08:41.555Z,100953.18
2023-05-05T14:11:08.190Z,100951.45
2023-05-05T14:13:34.776Z,100948.32
2023-05-05T14:16:01.529Z,100943.85
2023-05-05T14:18:28.459Z,100942.23
2023-05-05T14:20:55.115Z,100946.16
2023-05-05T14:23:21.803Z,100948.97
2023-05-05T14:25:48.527Z,100947.92
2023-05-05T14:28:15.163Z,100946.71
2023-05-05T14:30:41.969Z,100950.48
2023-05-05T14:33:08.638Z,100948.11
2023-05-05T14:35:35.344Z,100950.88
2023-05-05T14:38:01.949Z,100948.92
2023-05-05T14:40:30.318Z,100953.15
2023-05-05T14:42:57.906Z,100951.80
2023-05-05T14:45:24.567Z,100951.96
2023-05-05T14:47:51.223Z,100953.09
2023-05-05T14:50:17.810Z,100951.50
2023-05-05T14:52:44.576Z,100954.66
2023-05-05T14:55:11.966Z,100946.41
2023-05-05T14:57:38.788Z,100944.96
2023-05-05T15:00:09.451Z,100945.13
2023-05-05T15:02:36.118Z,100941.83
2023-05-05T15:05:02.804Z,100948.47
2023-05-05T15:07:29.904Z,100946.70
2023-05-05T15:09:56.494Z,100950.95
2023-05-05T15:12:23.239Z,100949.55
2023-05-05T15:14:49.805Z,100951.45
2023-05-05T15:17:16.489Z,100957.11
2023-05-05T15:19:43.104Z,100962.05
2023-05-05T15:22:09.817Z,100962.23
2023-05-05T15:24:37.255Z,100963.33
2023-05-05T15:27:04.214Z,100966.27
2023-05-05T15:29:31.200Z,100970.11
2023-05-05T15:31:59.168Z,100965.73
2023-05-05T15:34:26.250Z,100962.59
2023-05-05T15:36:52.815Z,100963.21
2023-05-05T15:39:19.487Z,100967.86
2023-05-05T15:41:46.091Z,100967.52
2023-05-05T15:44:12.804Z,100966.48
2023-05-05T15:46:39.734Z,100971.63
2023-05-05T15:49:06.686Z,100974.72
2023-05-05T15:51:33.270Z,100973.45
2023-05-05T15:54:00.321Z,100972.88
2023-05-05T15:56:29.850Z,100971.44
2023-05-05T15:58:56.960Z,100968.70
2023-05-05T16:01:23.662Z,100970.73
2023-05-05T16:03:50.446Z,100968.70
2023-05-05T16:06:17.260Z,100967.11
2023-05-05T16:08:43.906Z,100965.02
2023-05-05T16:11:10.806Z,100962.56
2023-05-05T16:13:39.247Z,100962.70
2023-05-05T16:16:06.860Z,100966.06
2023-05-05T16:18:33.801Z,100968.76
2023-05-05T16:21:00.737Z,100964.38
2023-05-05T16:23:27.416Z,100968.92
2023-05-05T16:25:54.030Z,100968.75
2023-05-05T16:28:20.762Z,100964.98
2023-05-05T16:30:47.374Z,100965.02
2023-05-05T16:33:14.158Z,100963.16
2023-05-05T16:35:44.139Z,100971.38
2023-05-05T16:38:10.680Z,100974.05
2023-05-05T16:40:37.907Z,100973.30
2023-05-05T16:43:04.903Z,100972.86
2023-05-05T16:45:31.543Z,100973.48
2023-05-05T16:47:58.224Z,100971.58
2023-05-05T16:50:24.934Z,100970.60
2023-05-05T16:52:51.898Z,100969.99
2023-05-05T16:55:19.437Z,100972.05
2023-05-05T16:57:47.259Z,100968.53
2023-05-05T17:00:14.593Z,100968.94
2023-05-05T17:02:41.443Z,100965.36
2023-05-05T17:05:08.939Z,100968.17
2023-05-05T17:07:35.912Z,100971.39
2023-05-05T17:10:02.584Z,100975.01
2023-05-05T17:12:29.216Z,100980.54
2023-05-05T17:14:55.980Z,100983.45
2023-05-05T17:17:22.860Z,100981.27
2023-05-05T17:19:49.494Z,100986.11
2023-05-05T17:22:16.559Z,100987.80
2023-05-05T17:24:43.258Z,100987.64
2023-05-05T17:27:09.951Z,100985.78
2023-05-05T17:29:41.312Z,100984.58
2023-05-05T17:32:09.266Z,100983.12
2023-05-05T17:34:36.488Z,100989.02
2023-05-05T17:37:03.432Z,100991.52
2023-05-05T17:39:30.912Z,100991.46
2023-05-05T17:41:57.781Z,100988.98
2023-05-05T17:44:24.536Z,100989.25
2023-05-05T17:46:51.369Z,100991.73
2023-05-05T17:49:18.103Z,100993.47
2023-05-05T17:51:44.740Z,100998.37
2023-05-05T17:54:11.689Z,100995.28
2023-05-05T17:56:38.434Z,100992.05
2023-05-05T17:59:05.116Z,100997.27
2023-05-05T18:01:31.821Z,101002.11
2023-05-05T18:03:58.615Z,101004.77
2023-05-05T18:06:25.698Z,101006.95
2023-05-05T18:08:52.818Z,101009.53
2023-05-05T18:11:21.260Z,101011.29
2023-05-05T18:13:47.903Z,101010.42
2023-05-05T18:16:14.538Z,101015.02
2023-05-05T18:18:41.710Z,101022.00
2023-05-05T18:21:12.180Z,101026.61
2023-05-05T18:23:40.170Z,101029.04
2023-05-05T18:26:07.630Z,101026.80
2023-05-05T18:28:34.233Z,101026.51
2023-05-05T18:31:01.043Z,101029.48
2023-05-05T18:33:28.001Z,101031.80
2023-05-05T18:35:54.705Z,101038.56
2023-05-05T18:38:21.613Z,101038.59
2023-05-05T18:40:48.324Z,101036.44
2023-05-05T18:43:15.020Z,101034.80
2023-05-05T18:45:41.948Z,101032.80
2023-05-05T18:48:08.833Z,101042.20
2023-05-05T18:50:36.769Z,101044.44
2023-05-05T18:53:03.831Z,101045.73
2023-05-05T18:55:30.406Z,101052.09
2023-05-05T18:57:56.990Z,101052.27
2023-05-05T19:00:24.564Z,101050.05
2023-05-05T19:02:51.546Z,101045.64
2023-05-05T19:05:18.515Z,101048.46
2023-05-05T19:07:45.755Z,101050.20
2023-05-05T19:10:12.586Z,101049.80
2023-05-05T19:12:39.262Z,101046.48
2023-05-05T19:15:07.014Z,101049.05
2023-05-05T19:17:34.141Z,101048.20
2023-05-05T19:20:01.222Z,101051.39
2023-05-05T19:22:30.081Z,101049.38
2023-05-05T19:24:56.821Z,101048.34
2023-05-05T19:27:23.607Z,101044.52
2023-05-05T19:29:52.608Z,101037.55
2023-05-05T19:32:23.198Z,101040.42
2023-05-05T19:34:54.423Z,101039.75
2023-05-05T19:37:21.720Z,101039.30
2023-05-05T19:39:49.621Z,101042.44
2023-05-05T19:42:17.456Z,101038.80
2023-05-05T19:44:44.151Z,101035.39
2023-05-05T19:47:11.320Z,101037.78
2023-05-05T19:49:38.116Z,101040.45
2023-05-05T19:52:05.085Z,101041.02
2023-05-05T19:54:31.644Z,101039.49
2023-05-05T19:56:59.509Z,101039.02
2023-05-05T19:59:26.211Z,101040.22
2023-05-05T20:01:53.023Z,101038.28
2023-05-05T20:04:19.751Z,101033.02
2023-05-05T20:06:46.582Z,101033.50
2023-05-05T20:09:13.186Z,101038.73
2023-05-05T20:11:39.872Z,101038.89
2023-05-05T20:14:06.603Z,101041.20
2023-05-05T20:16:33.626Z,101041.10
2023-05-05T20:19:00.463Z,101040.84
2023-05-05T20:21:27.171Z,101039.50
2023-05-05T20:23:56.653Z,101039.72
2023-05-05T20:26:24.529Z,101040.22
2023-05-05T20:28:51.485Z,101041.92
2023-05-05T20:31:18.473Z,101041.52
2023-05-05T20:33:45.356Z,101047.67
2023-05-05T20:36:12.066Z,101046.08
2023-05-05T20:38:38.716Z,101042.84
2023-05-05T20:41:06.069Z,101044.73
2023-05-05T20:43:32.724Z,101046.59
2023-05-05T20:45:59.646Z,101048.27
2023-05-05T20:48:26.358Z,101045.59
2023-05-05T20:50:53.084Z,101041.71
2023-05-05T20:53:21.022Z,101038.69
2023-05-05T20:55:47.780Z,101038.04
2023-05-05T20:58:14.491Z,101043.90
2023-05-05T21:00:41.338Z,101040.21
2023-05-05T21:03:08.075Z,101040.59
2023-05-05T21:05:36.142Z,101037.25
2023-05-05T21:08:02.841Z,101034.02
2023-05-05T21:10:29.624Z,101032.91
2023-05-05T21:12:56.368Z,101031.44
2023-05-05T21:15:23.330Z,101037.34
2023-05-05T21:17:50.204Z,101037.94
2023-05-05T21:20:18.825Z,101039.19
2023-05-05T21:22:46.284Z,101040.40
2023-05-05T21:25:16.265Z,101042.92
2023-05-05T21:27:44.152Z,101037.98
2023-05-05T21:30:11.588Z,101044.41
2023-05-05T21:32:39.536Z,101045.83
2023-05-05T21:35:07.788Z,101045.58
2023-05-05T21:37:36.863Z,101042.78
2023-05-05T21:40:03.853Z,101044.09
2023-05-05T21:42:30.994Z,101044.55
2023-05-05T21:44:57.931Z,101047.34
2023-05-05T21:47:24.608Z,101050.80
2023-05-05T21:49:51.522Z,101051.61
2023-05-05T21:52:18.307Z,101048.88
2023-05-05T21:54:45.228Z,101049.48
2023-05-05T21:57:14.123Z,101047.66
2023-05-05T21:59:41.396Z,101050.31
2023-05-05T22:02:08.342Z,101053.65
2023-05-05T22:04:35.794Z,101051.37
2023-05-05T22:07:02.470Z,101047.74
2023-05-05T22:09:29.274Z,101047.91
2023-05-05T22:11:57.405Z,101046.11
2023-05-05T22:14:23.970Z,101043.39
2023-05-05T22:16:51.140Z,101044.02
2023-05-05T22:19:18.175Z,101042.37
2023-05-05T22:21:44.951Z,101039.08
2023-05-05T22:24:11.614Z,101041.61
2023-05-05T22:26:43.242Z,101045.61
2023-05-05T22:29:11.559Z,101043.01
2023-05-05T22:31:38.802Z,101044.44
2023-05-05T22:34:05.554Z,101038.13
2023-05-05T22:36:32.329Z,101034.08
2023-05-05T22:38:59.200Z,101037.05
2023-05-05T22:41:26.297Z,101036.94
2023-05-05T22:43:53.201Z,101035.61
2023-05-05T22:46:19.845Z,101036.27
2023-05-05T22:48:46.804Z,101036.46
2023-05-05T22:51:13.472Z,101036.62
2023-05-05T22:53:40.351Z,101037.12
2023-05-05T22:56:07.327Z,101038.80
2023-05-05T22:58:34.098Z,101039.78
2023-05-05T23:01:00.944Z,101035.20
2023-05-05T23:03:27.656Z,101030.18
2023-05-05T23:05:54.473Z,101029.23
2023-05-05T23:08:21.874Z,101027.06
2023-05-05T23:10:48.523Z,101023.72
2023-05-05T23:13:15.221Z,101023.55
2023-05-05T23:15:41.788Z,101023.63
2023-05-05T23:18:08.635Z,101017.19
2023-05-05T23:20:40.361Z,101015.52
2023-05-05T23:23:06.988Z,101017.92
2023-05-05T23:25:33.864Z,101013.02
2023-05-05T23:28:00.577Z,101012.91
2023-05-05T23:30:27.249Z,101010.48
2023-05-05T23:32:54.825Z,101008.52
2023-05-05T23:35:21.653Z,101005.58
2023-05-05T23:37:49.159Z,101006.75
2023-05-05T23:40:15.731Z,101008.10
2023-05-05T23:42:42.283Z,101010.39
2023-05-05T23:45:09.701Z,101012.88
2023-05-05T23:47:36.727Z,101013.61
2023-05-05T23:50:03.626Z,101011.04
2023-05-05T23:52:30.212Z,101005.67
2023-05-05T23:54:56.690Z,101003.91
2023-05-05T23:57:23.395Z,101004.95
2023-05-05T23:59:49.904Z,101007.83
